createdAt,value
2022-09-21T02:26:02.150Z,15.40
2022-09-21T02:28:46.576Z,15.40
2022-09-21T02:31:21.962Z,15.40
2022-09-21T02:33:54.467Z,15.00
2022-09-21T02:36:45.231Z,14.00
2022-09-21T02:39:20.457Z,14.10
2022-09-21T02:42:11.094Z,13.60
2022-09-21T02:44:55.332Z,13.90
2022-09-21T02:47:37.402Z,14.30
2022-09-21T02:50:12.887Z,14.10
2022-09-21T02:52:45.015Z,14.40
2022-09-21T02:55:16.544Z,14.80
2022-09-21T02:57:48.210Z,14.90
2022-09-21T03:00:18.388Z,15.00
2022-09-21T03:02:47.878Z,15.00
2022-09-21T03:05:17.386Z,15.00
2022-09-21T03:07:46.891Z,14.30
2022-09-21T03:10:17.129Z,13.90
2022-09-21T03:12:47.127Z,13.60
2022-09-21T03:15:18.419Z,13.70
2022-09-21T03:17:47.841Z,13.40
2022-09-21T03:20:17.338Z,14.00
2022-09-21T03:22:46.815Z,14.00
2022-09-21T03:25:16.312Z,14.40
2022-09-21T03:27:45.888Z,13.90
2022-09-21T03:30:15.592Z,13.80
2022-09-21T03:32:45.008Z,13.70
2022-09-21T03:35:14.580Z,13.90
2022-09-21T03:37:44.063Z,13.50
2022-09-21T03:40:14.159Z,13.20
2022-09-21T03:42:44.402Z,13.80
2022-09-21T03:45:14.507Z,14.10
2022-09-21T03:47:44.046Z,14.30
2022-09-21T03:50:13.562Z,14.40
2022-09-21T03:52:43.440Z,14.40
2022-09-21T03:55:13.001Z,14.50
2022-09-21T03:57:42.495Z,14.40
2022-09-21T04:00:12.752Z,14.40
2022-09-21T04:02:42.800Z,14.50
2022-09-21T04:05:18.166Z,14.50
2022-09-21T04:07:48.162Z,14.50
2022-09-21T04:10:21.374Z,14.50
2022-09-21T04:12:51.278Z,14.40
2022-09-21T04:15:21.653Z,14.40
2022-09-21T04:17:54.879Z,14.40
2022-09-21T04:20:25.054Z,14.40
2022-09-21T04:22:54.689Z,14.30
2022-09-21T04:25:24.247Z,14.30
2022-09-21T04:27:53.703Z,14.20
2022-09-21T04:30:23.138Z,14.30
2022-09-21T04:32:52.845Z,14.20
2022-09-21T04:35:22.831Z,14.00
2022-09-21T04:37:53.858Z,14.00
2022-09-21T04:40:23.374Z,14.20
2022-09-21T04:42:54.151Z,14.30
2022-09-21T04:45:24.506Z,14.30
2022-09-21T04:47:54.031Z,14.20
2022-09-21T04:50:23.452Z,14.20
2022-09-21T04:52:54.644Z,14.20
2022-09-21T04:55:24.087Z,14.30
2022-09-21T04:57:53.513Z,14.00
2022-09-21T05:00:23.033Z,14.10
2022-09-21T05:02:52.461Z,14.10
2022-09-21T05:05:21.891Z,13.40
2022-09-21T05:07:51.412Z,13.30
2022-09-21T05:10:20.831Z,12.90
2022-09-21T05:12:50.268Z,13.40
2022-09-21T05:15:20.554Z,13.50
2022-09-21T05:17:49.992Z,13.70
2022-09-21T05:20:19.418Z,13.70
2022-09-21T05:22:48.987Z,13.20
2022-09-21T05:25:18.539Z,13.20
2022-09-21T05:27:47.997Z,13.50
2022-09-21T05:30:17.801Z,13.40
2022-09-21T05:32:58.927Z,12.90
2022-09-21T05:35:31.486Z,13.00
2022-09-21T05:38:04.674Z,12.90
2022-09-21T05:40:35.159Z,13.00
2022-09-21T05:43:04.844Z,13.30
2022-09-21T05:45:34.738Z,13.50
2022-09-21T05:48:18.912Z,13.60
2022-09-21T05:51:09.523Z,13.60
2022-09-21T05:53:50.885Z,13.60
2022-09-21T05:56:31.956Z,13.70
2022-09-21T05:59:25.531Z,13.80
2022-09-21T06:02:19.149Z,13.90
2022-09-21T06:04:49.557Z,13.60
2022-09-21T06:07:19.056Z,13.20
2022-09-21T06:09:48.552Z,13.50
2022-09-21T06:12:18.045Z,13.70
2022-09-21T06:14:47.493Z,13.80
2022-09-21T06:17:16.959Z,14.00
2022-09-21T06:19:46.668Z,14.00
2022-09-21T06:22:16.094Z,14.10
2022-09-21T06:24:45.743Z,14.30
2022-09-21T06:27:15.176Z,14.30
2022-09-21T06:29:44.613Z,14.40
2022-09-21T06:32:14.135Z,14.30
2022-09-21T06:34:43.569Z,14.40
2022-09-21T06:37:13.827Z,14.60
2022-09-21T06:39:43.536Z,14.60
2022-09-21T06:42:13.103Z,14.90
2022-09-21T06:44:43.752Z,15.20
2022-09-21T06:47:13.195Z,15.20
2022-09-21T06:49:42.830Z,15.70
2022-09-21T06:52:12.367Z,16.10
2022-09-21T06:54:42.475Z,15.80
2022-09-21T06:57:12.307Z,16.60
2022-09-21T06:59:42.563Z,17.30
2022-09-21T07:02:12.533Z,16.70
2022-09-21T07:04:42.023Z,17.10
2022-09-21T07:07:11.515Z,17.90
2022-09-21T07:12:12.004Z,18.50
2022-09-21T07:14:41.533Z,19.00
2022-09-21T07:17:15.734Z,19.10
2022-09-21T07:19:42.539Z,19.30
2022-09-21T07:22:11.973Z,19.20
2022-09-21T07:24:41.402Z,19.30
2022-09-21T07:27:10.849Z,20.00
2022-09-21T07:29:40.274Z,19.60
2022-09-21T07:32:10.086Z,20.40
2022-09-21T07:34:39.592Z,20.40
2022-09-21T07:37:09.106Z,20.60
2022-09-21T07:39:39.218Z,21.00
2022-09-21T07:42:08.817Z,21.40
2022-09-21T07:44:38.227Z,21.40
2022-09-21T07:47:08.502Z,21.50
2022-09-21T07:49:37.918Z,21.30
2022-09-21T07:52:10.979Z,21.60
2022-09-21T07:54:39.733Z,21.20
2022-09-21T07:57:27.218Z,21.80
2022-09-21T07:59:59.402Z,21.90
2022-09-21T08:02:28.937Z,22.40
2022-09-21T08:04:58.428Z,22.70
2022-09-21T08:07:28.400Z,22.20
2022-09-21T08:09:58.626Z,22.30
2022-09-21T08:12:28.453Z,22.10
2022-09-21T08:14:58.445Z,22.90
2022-09-21T08:17:27.968Z,23.10
2022-09-21T08:19:57.456Z,23.30
2022-09-21T08:22:26.886Z,23.40
2022-09-21T08:24:57.501Z,23.40
2022-09-21T08:27:26.928Z,23.80
2022-09-21T08:29:56.350Z,23.90
2022-09-21T08:32:49.305Z,23.90
2022-09-21T08:34:57.726Z,24.00
2022-09-21T08:37:27.251Z,23.80
2022-09-21T08:39:56.687Z,24.10
2022-09-21T08:42:59.045Z,24.50
2022-09-21T08:45:31.733Z,24.10
2022-09-21T08:48:04.228Z,24.00
2022-09-21T08:50:38.309Z,24.30
2022-09-21T08:53:16.715Z,23.20
2022-09-21T08:55:46.737Z,24.20
2022-09-21T08:58:24.988Z,24.40
2022-09-21T09:01:15.817Z,24.40
2022-09-21T09:04:20.592Z,24.60
2022-09-21T09:07:21.520Z,24.90
2022-09-21T09:10:08.564Z,25.60
2022-09-21T09:12:52.856Z,25.30
2022-09-21T09:15:30.948Z,24.70
2022-09-21T09:18:12.140Z,25.30
2022-09-21T09:20:44.637Z,23.30
2022-09-21T09:23:29.313Z,25.20
2022-09-21T09:26:01.818Z,26.00
2022-09-21T09:28:34.992Z,26.10
2022-09-21T09:31:22.131Z,26.20
2022-09-21T09:34:00.693Z,26.20
2022-09-21T09:36:56.730Z,26.70
2022-09-21T09:39:07.970Z,27.10
2022-09-21T09:41:38.123Z,26.80
2022-09-21T09:44:30.048Z,27.60
2022-09-21T09:47:24.923Z,27.50
2022-09-21T09:50:03.425Z,25.80
2022-09-21T09:52:36.710Z,24.90
2022-09-21T09:55:29.100Z,24.90
2022-09-21T09:57:59.087Z,25.70
2022-09-21T10:00:29.339Z,23.90
2022-09-21T10:02:59.896Z,25.10
2022-09-21T10:05:38.591Z,25.80
2022-09-21T10:08:09.543Z,26.70
2022-09-21T10:10:43.379Z,26.10
2022-09-21T10:13:27.836Z,25.50
2022-09-21T10:16:02.939Z,26.40
2022-09-21T10:18:50.478Z,26.90
2022-09-21T10:21:39.753Z,27.80
2022-09-21T10:24:12.239Z,27.80
2022-09-21T10:26:48.350Z,27.50
2022-09-21T10:29:27.158Z,28.20
2022-09-21T10:31:59.141Z,28.30
2022-09-21T10:34:31.797Z,28.80
2022-09-21T10:37:04.251Z,27.80
2022-09-21T10:39:35.099Z,28.20
2022-09-21T10:42:16.782Z,28.00
2022-09-21T10:44:51.824Z,28.10
2022-09-21T10:47:39.065Z,26.70
2022-09-21T10:50:26.667Z,26.80
2022-09-21T10:53:10.906Z,28.00
2022-09-21T10:55:52.554Z,28.90
2022-09-21T10:58:16.540Z,28.70
2022-09-21T11:00:52.652Z,28.70
2022-09-21T11:03:43.422Z,29.10
2022-09-21T11:06:31.043Z,29.10
2022-09-21T11:09:03.638Z,29.40
2022-09-21T11:11:39.855Z,29.60
2022-09-21T11:14:15.671Z,28.70
2022-09-21T11:17:11.916Z,29.10
2022-09-21T11:19:59.538Z,29.60
2022-09-21T11:22:54.263Z,29.90
2022-09-21T11:25:40.834Z,29.90
2022-09-21T11:28:33.773Z,29.50
2022-09-21T11:31:15.654Z,30.10
2022-09-21T11:34:03.049Z,28.30
2022-09-21T11:37:08.662Z,25.50
2022-09-21T11:39:53.669Z,26.70
2022-09-21T11:42:35.282Z,28.90
2022-09-21T11:45:13.665Z,29.50
2022-09-21T11:47:46.142Z,29.40
2022-09-21T11:50:33.818Z,28.70
2022-09-21T11:53:37.115Z,28.70
2022-09-21T11:56:16.047Z,30.10
2022-09-21T11:59:00.741Z,30.00
2022-09-21T12:01:42.424Z,30.10
2022-09-21T12:04:35.225Z,30.70
2022-09-21T12:07:13.608Z,30.30
2022-09-21T12:10:11.044Z,30.40
2022-09-21T12:12:43.159Z,30.60
2022-09-21T12:15:27.836Z,30.00
2022-09-21T12:18:09.263Z,30.70
2022-09-21T12:20:50.742Z,30.50
2022-09-21T12:23:38.267Z,30.10
2022-09-21T12:26:09.634Z,29.10
2022-09-21T12:28:44.958Z,29.80
2022-09-21T12:31:26.279Z,30.30
2022-09-21T12:33:58.915Z,30.00
2022-09-21T12:36:47.905Z,30.00
2022-09-21T12:39:23.284Z,29.30
2022-09-21T12:42:02.155Z,29.20
2022-09-21T12:44:52.567Z,29.40
2022-09-21T12:47:46.108Z,28.80
2022-09-21T12:50:27.697Z,29.50
2022-09-21T12:52:58.769Z,29.80
2022-09-21T12:55:56.786Z,30.30
2022-09-21T12:58:41.272Z,30.10
2022-09-21T13:01:27.669Z,30.40
2022-09-21T13:04:03.122Z,29.60
2022-09-21T13:06:47.838Z,29.80
2022-09-21T13:09:20.600Z,29.00
2022-09-21T13:11:56.951Z,29.70
2022-09-21T13:14:29.464Z,30.00
2022-09-21T13:17:03.731Z,29.80
2022-09-21T13:19:36.892Z,29.60
2022-09-21T13:22:21.564Z,29.70
2022-09-21T13:25:10.525Z,29.90
2022-09-21T13:28:02.485Z,29.50
2022-09-21T13:30:43.566Z,29.50
2022-09-21T13:33:25.326Z,29.50
2022-09-21T13:36:02.538Z,29.30
2022-09-21T13:38:37.716Z,29.50
2022-09-21T13:41:25.883Z,29.60
2022-09-21T13:44:04.188Z,29.30
2022-09-21T13:46:40.144Z,28.70
2022-09-21T13:49:15.607Z,28.90
2022-09-21T13:51:57.447Z,28.20
2022-09-21T13:54:31.975Z,28.80
2022-09-21T13:57:09.471Z,28.50
2022-09-21T13:59:40.764Z,28.80
2022-09-21T14:02:28.469Z,28.80
2022-09-21T14:04:59.867Z,28.80
2022-09-21T14:07:33.495Z,28.80
2022-09-21T14:10:06.164Z,28.70
2022-09-21T14:12:43.031Z,28.50
2022-09-21T14:15:24.553Z,27.00
2022-09-21T14:18:07.521Z,27.60
2022-09-21T14:20:39.727Z,26.50
2022-09-21T14:23:19.049Z,26.90
2022-09-21T14:25:56.998Z,27.20
2022-09-21T14:28:35.999Z,27.30
2022-09-21T14:31:11.495Z,27.60
2022-09-21T14:33:50.262Z,27.50
2022-09-21T14:36:22.794Z,27.20
2022-09-21T14:38:55.422Z,27.50
2022-09-21T14:41:27.722Z,27.70
2022-09-21T14:43:59.534Z,27.70
2022-09-21T14:46:46.761Z,27.60
2022-09-21T14:49:19.559Z,26.50
2022-09-21T14:51:55.757Z,26.40
2022-09-21T14:54:35.545Z,26.40
2022-09-21T14:57:17.163Z,26.40
2022-09-21T14:59:52.896Z,25.80
2022-09-21T15:02:25.235Z,26.10
2022-09-21T15:05:10.419Z,26.40
2022-09-21T15:08:01.500Z,26.20
2022-09-21T15:10:55.191Z,26.50
2022-09-21T15:13:49.145Z,26.70
2022-09-21T15:16:25.841Z,27.00
2022-09-21T15:19:04.596Z,27.00
2022-09-21T15:21:33.377Z,26.90
2022-09-21T15:24:05.923Z,26.40
2022-09-21T15:26:37.657Z,25.80
2022-09-21T15:29:12.505Z,25.50
2022-09-21T15:31:43.689Z,25.90
2022-09-21T15:34:16.050Z,26.10
2022-09-21T15:36:48.026Z,26.30
2022-09-21T15:39:29.090Z,26.30
2022-09-21T15:42:15.072Z,26.30
2022-09-21T15:44:48.478Z,26.30
2022-09-21T15:47:26.602Z,25.80
2022-09-21T15:49:57.177Z,25.80
2022-09-21T15:52:29.700Z,26.00
2022-09-21T15:55:20.105Z,25.70
2022-09-21T15:57:53.042Z,25.80
2022-09-21T16:00:25.926Z,26.00
2022-09-21T16:03:19.673Z,26.00
2022-09-21T16:05:52.116Z,25.80
2022-09-21T16:08:24.703Z,25.80
2022-09-21T16:10:56.436Z,25.80
2022-09-21T16:13:44.589Z,25.70
2022-09-21T16:16:16.335Z,25.70
2022-09-21T16:18:51.963Z,25.50
2022-09-21T16:21:38.616Z,25.50
2022-09-21T16:24:13.806Z,25.40
2022-09-21T16:26:44.024Z,25.20
2022-09-21T16:29:23.942Z,25.10
2022-09-21T16:31:59.054Z,25.10
2022-09-21T16:34:39.397Z,25.10
2022-09-21T16:37:28.012Z,25.20
2022-09-21T16:40:00.560Z,25.20
2022-09-21T16:42:34.824Z,25.10
2022-09-21T16:45:09.239Z,25.00
2022-09-21T16:47:39.805Z,24.70
2022-09-21T16:50:15.602Z,24.70
2022-09-21T16:52:46.741Z,24.70
2022-09-21T16:55:16.690Z,24.60
2022-09-21T16:57:48.232Z,24.50
2022-09-21T17:00:21.242Z,24.50
2022-09-21T17:02:50.948Z,24.30
2022-09-21T17:05:21.959Z,24.30
2022-09-21T17:07:59.881Z,24.10
2022-09-21T17:10:32.389Z,24.10
2022-09-21T17:13:01.027Z,24.10
2022-09-21T17:15:32.241Z,24.00
2022-09-21T17:18:01.827Z,24.00
2022-09-21T17:20:43.180Z,23.90
2022-09-21T17:23:12.955Z,23.80
2022-09-21T17:25:42.520Z,23.80
2022-09-21T17:28:26.287Z,23.70
2022-09-21T17:30:55.898Z,23.70
2022-09-21T17:33:26.160Z,23.70
2022-09-21T17:35:56.663Z,23.60
2022-09-21T17:38:26.154Z,23.60
2022-09-21T17:40:55.956Z,23.50
2022-09-21T17:43:37.317Z,23.40
2022-09-21T17:46:09.895Z,23.40
2022-09-21T17:48:41.266Z,23.30
2022-09-21T17:51:11.958Z,23.30
2022-09-21T17:53:41.883Z,23.20
2022-09-21T17:56:20.802Z,23.10
2022-09-21T17:59:05.390Z,23.10
2022-09-21T18:01:42.611Z,23.00
2022-09-21T18:04:12.345Z,22.90
2022-09-21T18:06:43.815Z,22.80
2022-09-21T18:09:13.793Z,22.70
2022-09-21T18:11:49.354Z,22.60
2022-09-21T18:14:27.968Z,22.60
2022-09-21T18:17:33.824Z,22.60
2022-09-21T18:20:30.656Z,22.50
2022-09-21T18:23:25.451Z,22.40
2022-09-21T18:25:57.312Z,22.30
2022-09-21T18:28:29.834Z,22.20
2022-09-21T18:31:24.449Z,22.20
2022-09-21T18:33:57.138Z,22.20
2022-09-21T18:36:46.299Z,22.10
2022-09-21T18:39:21.463Z,22.00
2022-09-21T18:42:25.974Z,21.90
2022-09-21T18:45:01.197Z,21.90
2022-09-21T18:48:02.429Z,21.80
2022-09-21T18:50:38.261Z,21.80
2022-09-21T18:53:16.737Z,21.60
2022-09-21T18:55:47.671Z,21.60
2022-09-21T18:58:17.323Z,21.60
2022-09-21T19:00:48.354Z,21.50
2022-09-21T19:03:19.349Z,21.40
2022-09-21T19:06:01.398Z,21.40
2022-09-21T19:08:51.810Z,21.30
2022-09-21T19:11:25.739Z,21.30
2022-09-21T19:14:01.121Z,21.20
2022-09-21T19:16:36.795Z,21.20
2022-09-21T19:19:09.412Z,21.10
2022-09-21T19:21:46.260Z,21.10
2022-09-21T19:24:35.380Z,21.10
2022-09-21T19:27:41.265Z,21.00
2022-09-21T19:30:14.129Z,21.00
2022-09-21T19:32:44.602Z,21.00
2022-09-21T19:35:22.833Z,20.90
2022-09-21T19:37:54.905Z,20.80
2022-09-21T19:40:30.033Z,20.70
2022-09-21T19:43:14.753Z,20.60
2022-09-21T19:45:52.839Z,20.60
2022-09-21T19:48:25.511Z,20.60
2022-09-21T19:50:58.842Z,20.60
2022-09-21T19:53:46.504Z,20.50
2022-09-21T19:56:35.955Z,20.40
2022-09-21T19:59:23.434Z,20.30
2022-09-21T20:01:58.955Z,20.30
2022-09-21T20:04:33.096Z,20.30
2022-09-21T20:07:05.620Z,20.20
2022-09-21T20:09:42.110Z,20.20
2022-09-21T20:12:37.295Z,20.20
2022-09-21T20:15:11.555Z,20.20
2022-09-21T20:17:54.168Z,20.10
2022-09-21T20:20:27.165Z,20.10
2022-09-21T20:22:57.376Z,20.00
2022-09-21T20:25:39.086Z,19.90
2022-09-21T20:28:11.391Z,19.80
2022-09-21T20:30:41.649Z,19.70
2022-09-21T20:33:17.117Z,19.70
2022-09-21T20:35:48.943Z,19.70
2022-09-21T20:38:18.673Z,19.70
2022-09-21T20:40:48.152Z,19.60
2022-09-21T20:43:18.628Z,19.60
2022-09-21T20:45:49.560Z,19.60
2022-09-21T20:48:20.079Z,19.50
2022-09-21T20:50:51.434Z,19.40
2022-09-21T20:53:20.958Z,19.40
2022-09-21T20:55:56.604Z,19.40
2022-09-21T20:58:28.009Z,19.40
2022-09-21T21:00:59.483Z,19.30
2022-09-21T21:03:28.976Z,19.40
2022-09-21T21:06:17.803Z,19.40
2022-09-21T21:08:48.495Z,19.20
2022-09-21T21:11:17.922Z,19.30
2022-09-21T21:13:47.487Z,19.30
2022-09-21T21:16:17.034Z,19.30
2022-09-21T21:18:46.552Z,19.20
2022-09-21T21:21:15.974Z,19.20
2022-09-21T21:24:08.064Z,19.00
2022-09-21T21:27:00.909Z,19.00
2022-09-21T21:29:09.197Z,19.00
2022-09-21T21:31:38.747Z,19.00
2022-09-21T21:34:09.021Z,19.00
2022-09-21T21:36:38.446Z,18.90
2022-09-21T21:39:08.828Z,18.90
2022-09-21T21:41:38.317Z,18.70
2022-09-21T21:44:08.166Z,18.70
2022-09-21T21:46:37.667Z,18.70
2022-09-21T21:49:07.103Z,18.60
2022-09-21T21:51:36.762Z,18.70
2022-09-21T21:54:06.552Z,17.90
2022-09-21T21:56:36.688Z,17.90
2022-09-21T21:59:06.167Z,18.20
2022-09-21T22:01:35.655Z,18.30
2022-09-21T22:04:06.109Z,18.40
2022-09-21T22:06:37.385Z,18.50
2022-09-21T22:09:09.190Z,18.50
2022-09-21T22:11:39.978Z,18.50
2022-09-21T22:14:11.896Z,18.50
2022-09-21T22:16:41.614Z,18.30
2022-09-21T22:19:11.332Z,18.30
2022-09-21T22:21:44.948Z,18.20
2022-09-21T22:24:14.949Z,18.20
2022-09-21T22:26:48.123Z,18.20
2022-09-21T22:29:18.077Z,18.30
2022-09-21T22:31:50.823Z,18.30
2022-09-21T22:34:21.128Z,18.30
2022-09-21T22:36:51.430Z,18.10
2022-09-21T22:39:21.319Z,17.90
2022-09-21T22:41:50.832Z,18.00
2022-09-21T22:44:20.274Z,17.80
2022-09-21T22:46:49.698Z,17.70
2022-09-21T22:49:19.116Z,17.80
2022-09-21T22:51:48.653Z,18.00
2022-09-21T22:54:18.070Z,18.00
2022-09-21T22:56:47.510Z,18.00
2022-09-21T22:59:16.995Z,17.90
2022-09-21T23:01:46.435Z,17.80
2022-09-21T23:04:17.167Z,17.80
2022-09-21T23:06:47.161Z,17.80
2022-09-21T23:09:21.945Z,17.70
2022-09-21T23:11:53.915Z,17.80
2022-09-21T23:14:24.815Z,17.60
2022-09-21T23:16:54.314Z,17.70
2022-09-21T23:19:23.734Z,17.80
2022-09-21T23:21:53.218Z,17.70
2022-09-21T23:24:22.629Z,17.60
2022-09-21T23:26:52.073Z,17.60
2022-09-21T23:29:22.451Z,17.60
2022-09-21T23:31:51.925Z,17.40
2022-09-21T23:34:22.147Z,17.40
2022-09-21T23:36:51.578Z,17.50
2022-09-21T23:39:20.995Z,17.50
2022-09-21T23:41:50.621Z,17.30
2022-09-21T23:44:20.043Z,17.30
2022-09-21T23:46:49.502Z,17.30
2022-09-21T23:49:19.456Z,17.30
2022-09-21T23:51:49.372Z,17.10
2022-09-21T23:54:19.635Z,16.40
2022-09-21T23:56:49.156Z,15.90
2022-09-21T23:59:18.570Z,16.60
